createdAt,value
2023-02-28T00:00:13.073Z,5.17
2023-02-28T00:02:40.323Z,3.97
2023-02-28T00:05:08.826Z,5.07
2023-02-28T00:07:35.522Z,5.23
2023-02-28T00:10:04.378Z,4.93
2023-02-28T00:12:30.905Z,4.13
2023-02-28T00:14:57.454Z,4.10
2023-02-28T00:17:24.632Z,6.83
2023-02-28T00:19:52.419Z,4.60
2023-02-28T00:22:20.978Z,3.90
2023-02-28T00:24:48.314Z,4.40
2023-02-28T00:27:16.300Z,4.50
2023-02-28T00:29:42.860Z,3.97
2023-02-28T00:32:09.469Z,4.30
2023-02-28T00:34:38.790Z,4.60
2023-02-28T00:37:06.573Z,3.63
2023-02-28T00:39:35.547Z,5.53
2023-02-28T00:42:03.002Z,5.28
2023-02-28T00:44:31.525Z,4.63
2023-02-28T00:46:58.540Z,4.40
2023-02-28T00:49:25.907Z,4.80
2023-02-28T00:51:52.780Z,5.20
2023-02-28T00:54:19.860Z,3.63
2023-02-28T00:56:49.194Z,4.40
2023-02-28T00:59:16.809Z,4.53
2023-02-28T01:01:45.516Z,4.63
2023-02-28T01:04:12.973Z,4.25
2023-02-28T01:06:39.605Z,4.10
2023-02-28T01:09:07.813Z,3.90
2023-02-28T01:11:35.308Z,4.70
2023-02-28T01:14:02.860Z,4.43
2023-02-28T01:16:29.425Z,4.33
2023-02-28T01:18:57.692Z,4.80
2023-02-28T01:21:24.633Z,4.33
2023-02-28T01:23:52.283Z,4.77
2023-02-28T01:26:20.641Z,9.57
2023-02-28T01:28:48.235Z,5.33
2023-02-28T01:31:15.496Z,4.37
2023-02-28T01:33:42.224Z,3.53
2023-02-28T01:36:12.827Z,3.90
2023-02-28T01:38:40.029Z,3.30
2023-02-28T01:41:08.512Z,4.43
2023-02-28T01:43:55.436Z,4.00
2023-02-28T01:46:22.058Z,5.60
2023-02-28T01:48:53.869Z,4.20
2023-02-28T01:51:25.795Z,4.83
2023-02-28T01:53:56.731Z,3.90
2023-02-28T01:56:28.827Z,4.07
2023-02-28T01:58:56.008Z,4.23
2023-02-28T02:01:24.837Z,5.17
2023-02-28T02:03:56.332Z,3.88
2023-02-28T02:06:28.497Z,4.50
2023-02-28T02:08:55.414Z,3.47
2023-02-28T02:11:23.905Z,4.90
2023-02-28T02:14:13.613Z,4.93
2023-02-28T02:19:52.270Z,4.57
2023-02-28T02:23:03.600Z,2.87
2023-02-28T02:25:35.864Z,5.60
2023-02-28T02:28:23.884Z,3.93
2023-02-28T02:31:12.826Z,3.53
2023-02-28T02:34:20.102Z,4.43
2023-02-28T02:36:53.140Z,4.30
2023-02-28T02:39:29.964Z,3.10
2023-02-28T02:42:02.602Z,4.23
2023-02-28T02:44:35.556Z,3.13
2023-02-28T02:47:09.198Z,5.40
2023-02-28T02:49:41.764Z,5.93
2023-02-28T02:52:12.625Z,3.13
2023-02-28T02:54:42.934Z,4.17
2023-02-28T02:57:15.522Z,4.40
2023-02-28T02:59:42.986Z,4.23
2023-02-28T03:02:13.540Z,4.00
2023-02-28T03:04:47.071Z,3.57
2023-02-28T03:07:13.616Z,5.23
2023-02-28T03:09:40.266Z,4.80
2023-02-28T03:12:12.816Z,5.30
2023-02-28T03:14:51.652Z,5.03
2023-02-28T03:17:31.903Z,6.18
2023-02-28T03:20:14.230Z,4.20
2023-02-28T03:22:52.055Z,5.40
2023-02-28T03:25:28.089Z,6.30
2023-02-28T03:28:03.615Z,5.93
2023-02-28T03:30:36.925Z,3.73
2023-02-28T03:33:10.080Z,4.23
2023-02-28T03:35:43.303Z,4.73
2023-02-28T03:38:14.907Z,3.67
2023-02-28T03:40:47.393Z,4.53
2023-02-28T03:43:21.123Z,3.30
2023-02-28T03:45:50.462Z,3.60
2023-02-28T03:48:21.674Z,4.35
2023-02-28T03:50:53.260Z,5.87
2023-02-28T03:53:24.102Z,4.27
2023-02-28T03:55:55.666Z,4.90
2023-02-28T03:58:28.003Z,4.70
2023-02-28T04:01:08.610Z,3.87
2023-02-28T04:03:36.725Z,5.87
2023-02-28T04:06:06.842Z,3.60
2023-02-28T04:08:33.766Z,4.77
2023-02-28T04:11:05.274Z,5.17
2023-02-28T04:13:31.835Z,5.03
2023-02-28T04:15:58.478Z,4.80
2023-02-28T04:18:25.172Z,4.20
2023-02-28T04:20:51.923Z,4.30
2023-02-28T04:23:19.909Z,4.40
2023-02-28T04:25:46.488Z,4.30
2023-02-28T04:28:13.041Z,3.50
2023-02-28T04:30:40.177Z,4.90
2023-02-28T04:33:07.134Z,5.80
2023-02-28T04:35:33.708Z,4.27
2023-02-28T04:38:00.280Z,6.70
2023-02-28T04:40:28.242Z,5.47
2023-02-28T04:42:54.778Z,4.50
2023-02-28T04:45:21.318Z,4.40
2023-02-28T04:47:47.920Z,4.57
2023-02-28T04:50:14.550Z,4.50
2023-02-28T04:52:41.095Z,5.30
2023-02-28T04:55:08.519Z,6.17
2023-02-28T04:57:36.394Z,4.00
2023-02-28T05:00:05.993Z,4.97
2023-02-28T05:02:35.397Z,4.55
2023-02-28T05:05:02.067Z,4.53
2023-02-28T05:07:28.628Z,6.90
2023-02-28T05:09:55.168Z,4.63
2023-02-28T05:12:21.714Z,4.03
2023-02-28T05:14:49.589Z,4.73
2023-02-28T05:17:16.168Z,4.53
2023-02-28T05:19:42.781Z,4.87
2023-02-28T05:22:15.306Z,5.97
2023-02-28T05:24:43.209Z,5.97
2023-02-28T05:27:10.322Z,5.50
2023-02-28T05:29:42.552Z,5.57
2023-02-28T05:32:12.333Z,5.47
2023-02-28T05:37:05.679Z,6.40
2023-02-28T05:39:32.324Z,5.43
2023-02-28T05:41:58.893Z,6.13
2023-02-28T05:44:25.849Z,5.77
2023-02-28T05:46:52.428Z,4.10
2023-02-28T05:49:20.413Z,5.07
2023-02-28T05:51:47.013Z,4.83
2023-02-28T05:54:14.038Z,7.73
2023-02-28T05:56:41.643Z,6.00
2023-02-28T05:59:08.340Z,5.63
2023-02-28T06:01:37.592Z,6.07
2023-02-28T06:04:06.612Z,5.60
2023-02-28T06:06:37.935Z,6.40
2023-02-28T06:09:05.879Z,8.67
2023-02-28T06:11:32.761Z,6.17
2023-02-28T06:14:01.764Z,5.83
2023-02-28T06:16:29.306Z,8.63
2023-02-28T06:18:58.189Z,7.43
2023-02-28T06:21:25.565Z,6.00
2023-02-28T06:23:54.046Z,7.17
2023-02-28T06:26:21.225Z,7.40
2023-02-28T06:28:47.970Z,6.50
2023-02-28T06:31:16.314Z,6.80
2023-02-28T06:33:43.534Z,7.67
2023-02-28T06:36:11.082Z,7.83
2023-02-28T06:38:38.283Z,7.60
2023-02-28T06:41:07.155Z,6.17
2023-02-28T06:43:36.423Z,7.40
2023-02-28T06:46:06.060Z,7.20
2023-02-28T06:48:35.004Z,6.82
2023-02-28T06:53:29.470Z,6.30
2023-02-28T06:55:56.011Z,6.67
2023-02-28T06:58:23.934Z,7.20
2023-02-28T07:00:52.687Z,7.13
2023-02-28T07:03:19.718Z,5.63
2023-02-28T07:05:46.578Z,6.73
2023-02-28T07:08:13.271Z,6.43
2023-02-28T07:10:40.261Z,6.43
2023-02-28T07:13:08.493Z,6.83
2023-02-28T07:15:40.084Z,6.90
2023-02-28T07:18:07.815Z,6.90
2023-02-28T07:20:34.403Z,6.90
2023-02-28T07:23:01.422Z,7.97
2023-02-28T07:25:29.281Z,7.93
2023-02-28T07:27:57.069Z,7.73
2023-02-28T07:30:23.670Z,6.77
2023-02-28T07:32:51.558Z,6.10
2023-02-28T07:35:18.442Z,7.93
2023-02-28T07:37:45.042Z,8.10
2023-02-28T07:40:12.883Z,7.77
2023-02-28T07:42:40.810Z,9.63
2023-02-28T07:45:09.486Z,5.83
2023-02-28T07:47:36.072Z,6.40
2023-02-28T07:50:04.464Z,8.93
2023-02-28T07:52:31.048Z,8.37
2023-02-28T07:54:57.658Z,7.67
2023-02-28T07:57:24.254Z,6.50
2023-02-28T07:59:50.800Z,6.57
2023-02-28T08:02:18.862Z,6.63
2023-02-28T08:04:46.046Z,7.00
2023-02-28T08:07:15.422Z,7.27
2023-02-28T08:09:42.061Z,7.03
2023-02-28T08:12:09.541Z,6.37
2023-02-28T08:14:36.477Z,8.83
2023-02-28T08:17:03.471Z,8.30
2023-02-28T08:19:30.355Z,10.30
2023-02-28T08:21:56.942Z,10.73
2023-02-28T08:24:25.198Z,9.20
2023-02-28T08:26:51.765Z,9.07
2023-02-28T08:29:18.323Z,10.17
2023-02-28T08:31:45.062Z,9.70
2023-02-28T08:34:13.993Z,9.00
2023-02-28T08:36:41.185Z,9.15
2023-02-28T08:39:08.044Z,11.27
2023-02-28T08:41:36.049Z,11.67
2023-02-28T08:44:02.636Z,9.93
2023-02-28T08:46:29.457Z,8.97
2023-02-28T08:49:00.212Z,10.30
2023-02-28T08:51:28.272Z,8.33
2023-02-28T08:53:56.038Z,11.80
2023-02-28T08:56:23.093Z,11.17
2023-02-28T08:58:51.693Z,9.77
2023-02-28T09:01:20.101Z,9.67
2023-02-28T09:03:48.158Z,10.83
2023-02-28T09:06:16.424Z,12.43
2023-02-28T09:08:43.752Z,12.73
2023-02-28T09:11:11.391Z,12.67
2023-02-28T09:13:38.941Z,14.90
2023-02-28T09:16:09.962Z,12.30
2023-02-28T09:18:38.314Z,14.93
2023-02-28T09:21:05.951Z,17.80
2023-02-28T09:23:32.642Z,12.97
2023-02-28T09:25:59.374Z,13.53
2023-02-28T09:28:25.982Z,9.87
2023-02-28T09:30:55.140Z,16.70
2023-02-28T09:33:23.230Z,20.08
2023-02-28T09:35:49.997Z,18.33
2023-02-28T09:38:17.426Z,20.53
2023-02-28T09:40:50.918Z,14.20
2023-02-28T09:43:20.834Z,10.57
2023-02-28T09:45:53.226Z,16.03
2023-02-28T09:48:26.202Z,17.87
2023-02-28T09:50:57.683Z,13.10
2023-02-28T09:53:29.098Z,11.63
2023-02-28T09:55:59.316Z,12.47
2023-02-28T09:58:32.822Z,11.87
2023-02-28T10:01:05.241Z,13.37
2023-02-28T10:03:39.658Z,12.67
2023-02-28T10:06:11.477Z,14.13
2023-02-28T10:08:46.115Z,13.60
2023-02-28T10:11:15.506Z,17.60
2023-02-28T10:13:51.473Z,16.90
2023-02-28T10:16:23.648Z,16.37
2023-02-28T10:18:55.565Z,23.23
2023-02-28T10:21:26.878Z,21.70
2023-02-28T10:24:02.827Z,21.20
2023-02-28T10:26:32.223Z,15.20
2023-02-28T10:28:59.182Z,16.88
2023-02-28T10:31:26.442Z,17.67
2023-02-28T10:33:54.600Z,19.57
2023-02-28T10:36:22.321Z,21.93
2023-02-28T10:38:50.096Z,15.70
2023-02-28T10:41:28.869Z,16.53
2023-02-28T10:44:14.263Z,13.93
2023-02-28T10:46:42.074Z,16.17
2023-02-28T10:49:18.093Z,14.97
2023-02-28T10:51:46.054Z,17.30
2023-02-28T10:54:17.029Z,13.20
2023-02-28T10:56:43.715Z,15.63
2023-02-28T10:59:29.275Z,16.43
2023-02-28T11:01:56.304Z,16.97
2023-02-28T11:04:37.496Z,21.67
2023-02-28T11:07:06.817Z,17.30
2023-02-28T11:09:36.256Z,18.65
2023-02-28T11:12:05.357Z,16.23
2023-02-28T11:14:35.389Z,19.75
2023-02-28T11:17:14.379Z,17.50
2023-02-28T11:19:49.045Z,17.95
2023-02-28T11:22:20.540Z,18.77
2023-02-28T11:24:50.870Z,21.07
2023-02-28T11:27:47.998Z,21.37
2023-02-28T11:30:34.402Z,20.23
2023-02-28T11:33:02.466Z,15.47
2023-02-28T11:35:35.640Z,19.23
2023-02-28T11:38:02.624Z,18.67
2023-02-28T11:40:41.838Z,17.63
2023-02-28T11:43:23.590Z,19.08
2023-02-28T11:46:04.722Z,19.57
2023-02-28T11:48:39.622Z,14.13
2023-02-28T11:51:16.284Z,19.30
2023-02-28T11:54:00.237Z,12.20
2023-02-28T11:56:33.459Z,12.43
2023-02-28T11:59:13.950Z,14.40
2023-02-28T12:02:03.643Z,22.03
2023-02-28T12:07:14.886Z,13.40
2023-02-28T12:09:54.407Z,14.30
2023-02-28T12:12:33.309Z,12.90
2023-02-28T12:15:15.629Z,13.23
2023-02-28T12:17:52.778Z,15.50
2023-02-28T12:20:31.677Z,11.93
2023-02-28T12:23:27.015Z,12.85
2023-02-28T12:26:10.750Z,12.40
2023-02-28T12:28:43.058Z,13.73
2023-02-28T12:31:15.535Z,20.47
2023-02-28T12:33:48.454Z,14.27
2023-02-28T12:36:20.056Z,14.90
2023-02-28T12:38:50.587Z,13.27
2023-02-28T12:41:21.179Z,15.60
2023-02-28T12:43:52.836Z,13.50
2023-02-28T12:46:25.101Z,19.63
2023-02-28T12:48:54.611Z,21.60
2023-02-28T12:51:22.272Z,25.60
2023-02-28T12:54:04.536Z,19.57
2023-02-28T12:56:39.832Z,22.17
2023-02-28T12:59:15.926Z,21.37
2023-02-28T13:02:12.264Z,22.30
2023-02-28T13:05:05.662Z,22.03
2023-02-28T13:08:13.035Z,21.90
2023-02-28T13:10:43.877Z,22.77
2023-02-28T13:13:17.059Z,20.13
2023-02-28T13:16:02.295Z,19.70
2023-02-28T13:18:32.604Z,18.00
2023-02-28T13:21:01.182Z,18.10
2023-02-28T13:23:59.505Z,20.67
2023-02-28T13:27:03.637Z,12.50
2023-02-28T13:29:34.548Z,12.30
2023-02-28T13:32:29.950Z,24.23
2023-02-28T13:35:35.252Z,11.67
2023-02-28T13:38:23.915Z,24.67
2023-02-28T13:40:50.795Z,20.17
2023-02-28T13:43:25.288Z,11.57
2023-02-28T13:46:14.350Z,15.80
2023-02-28T13:48:42.199Z,19.97
2023-02-28T13:51:42.627Z,21.40
2023-02-28T13:54:24.327Z,12.87
2023-02-28T13:56:59.687Z,13.17
2023-02-28T13:59:35.141Z,12.47
2023-02-28T14:02:28.361Z,23.73
2023-02-28T14:05:02.669Z,27.87
2023-02-28T14:07:36.231Z,26.67
2023-02-28T14:10:07.045Z,12.37
2023-02-28T14:13:02.569Z,13.80
2023-02-28T14:15:47.083Z,26.47
2023-02-28T14:18:24.239Z,13.97
2023-02-28T14:20:58.347Z,11.70
2023-02-28T14:23:46.021Z,12.90
2023-02-28T14:26:30.209Z,12.50
2023-02-28T14:29:15.980Z,12.33
2023-02-28T14:31:48.919Z,12.73
2023-02-28T14:34:40.433Z,12.50
2023-02-28T14:37:11.838Z,11.97
2023-02-28T14:39:42.316Z,23.57
2023-02-28T14:42:29.056Z,12.87
2023-02-28T14:44:59.034Z,11.70
2023-02-28T14:47:29.720Z,14.23
2023-02-28T14:49:59.075Z,12.70
2023-02-28T14:52:28.252Z,12.27
2023-02-28T14:54:57.114Z,13.27
2023-02-28T14:57:25.863Z,14.95
2023-02-28T14:59:59.966Z,14.17
2023-02-28T15:02:30.512Z,13.83
2023-02-28T15:05:00.080Z,12.77
2023-02-28T15:07:30.506Z,13.50
2023-02-28T15:10:12.607Z,14.07
2023-02-28T15:12:41.269Z,14.00
2023-02-28T15:15:16.614Z,24.80
2023-02-28T15:17:46.904Z,28.53
2023-02-28T15:20:17.096Z,27.50
2023-02-28T15:22:44.485Z,28.37
2023-02-28T15:25:16.051Z,15.03
2023-02-28T15:27:47.483Z,13.33
2023-02-28T15:30:19.060Z,13.87
2023-02-28T15:32:45.811Z,13.33
2023-02-28T15:35:27.378Z,14.43
2023-02-28T15:37:56.441Z,12.17
2023-02-28T15:40:27.248Z,13.10
2023-02-28T15:43:08.197Z,14.53
2023-02-28T15:45:39.348Z,13.60
2023-02-28T15:48:14.638Z,14.77
2023-02-28T15:50:42.935Z,13.80
2023-02-28T15:53:16.432Z,15.40
2023-02-28T15:55:43.424Z,13.13
2023-02-28T15:58:13.907Z,15.17
2023-02-28T16:00:46.562Z,11.77
2023-02-28T16:03:27.687Z,16.43
2023-02-28T16:06:35.785Z,12.90
2023-02-28T16:09:03.226Z,15.00
2023-02-28T16:11:30.363Z,15.10
2023-02-28T16:13:58.254Z,14.93
2023-02-28T16:16:27.103Z,12.63
2023-02-28T16:18:54.105Z,14.40
2023-02-28T16:21:20.706Z,14.87
2023-02-28T16:23:48.713Z,16.07
2023-02-28T16:26:22.015Z,13.60
2023-02-28T16:28:49.462Z,14.10
2023-02-28T16:31:17.525Z,14.97
2023-02-28T16:33:45.679Z,12.47
2023-02-28T16:36:17.835Z,14.93
2023-02-28T16:38:44.711Z,14.30
2023-02-28T16:41:19.740Z,13.93
2023-02-28T16:43:49.306Z,14.80
2023-02-28T16:46:17.572Z,14.85
2023-02-28T16:48:44.644Z,14.67
2023-02-28T16:51:15.201Z,15.70
2023-02-28T16:53:42.312Z,13.80
2023-02-28T16:56:16.930Z,16.37
2023-02-28T16:58:43.814Z,15.20
2023-02-28T17:01:10.493Z,15.80
2023-02-28T17:03:37.791Z,13.60
2023-02-28T17:06:05.411Z,15.50
2023-02-28T17:08:33.211Z,13.33
2023-02-28T17:11:00.501Z,13.87
2023-02-28T17:13:28.574Z,13.97
2023-02-28T17:15:55.676Z,13.97
2023-02-28T17:18:22.856Z,13.47
2023-02-28T17:20:50.022Z,13.93
2023-02-28T17:23:17.026Z,13.90
2023-02-28T17:25:55.726Z,12.87
2023-02-28T17:28:24.012Z,13.07
2023-02-28T17:30:52.015Z,16.23
2023-02-28T17:33:18.813Z,16.03
2023-02-28T17:35:45.435Z,20.07
2023-02-28T17:38:17.786Z,20.17
2023-02-28T17:40:45.409Z,21.70
2023-02-28T17:43:12.367Z,23.10
2023-02-28T17:45:39.110Z,20.37
2023-02-28T17:48:07.338Z,20.37
2023-02-28T17:50:34.136Z,20.73
2023-02-28T17:53:00.844Z,19.53
2023-02-28T17:55:27.558Z,19.37
2023-02-28T17:57:54.157Z,19.07
2023-02-28T18:00:24.829Z,20.37
2023-02-28T18:02:52.040Z,20.87
2023-02-28T18:05:20.046Z,17.30
2023-02-28T18:07:46.729Z,20.27
2023-02-28T18:10:16.884Z,19.27
2023-02-28T18:12:43.711Z,21.13
2023-02-28T18:15:11.081Z,20.47
2023-02-28T18:17:37.673Z,16.07
2023-02-28T18:20:05.846Z,19.77
2023-02-28T18:22:36.971Z,19.17
2023-02-28T18:25:03.976Z,19.83
2023-02-28T18:27:30.604Z,18.23
2023-02-28T18:29:57.189Z,18.40
2023-02-28T18:32:23.910Z,17.07
2023-02-28T18:34:50.862Z,16.40
2023-02-28T18:37:18.537Z,18.63
2023-02-28T18:39:47.252Z,19.10
2023-02-28T18:42:13.950Z,18.83
2023-02-28T18:44:41.013Z,28.30
2023-02-28T18:47:07.694Z,23.60
2023-02-28T18:49:35.671Z,18.03
2023-02-28T18:52:02.429Z,17.40
2023-02-28T18:54:29.121Z,17.97
2023-02-28T18:56:57.255Z,18.40
2023-02-28T18:59:23.838Z,16.00
2023-02-28T19:01:50.437Z,16.13
2023-02-28T19:04:17.107Z,16.63
2023-02-28T19:06:43.845Z,18.37
2023-02-28T19:09:10.627Z,19.00
2023-02-28T19:11:37.395Z,19.33
2023-02-28T19:14:05.513Z,22.70
2023-02-28T19:16:32.782Z,23.90
2023-02-28T19:18:59.523Z,35.50
2023-02-28T19:21:26.925Z,46.07
2023-02-28T19:23:53.644Z,33.93
2023-02-28T19:26:22.281Z,33.43
2023-02-28T19:28:49.460Z,35.20
2023-02-28T19:31:20.049Z,37.63
2023-02-28T19:33:46.700Z,31.07
2023-02-28T19:36:14.324Z,34.20
2023-02-28T19:38:41.118Z,31.53
2023-02-28T19:41:10.035Z,30.17
2023-02-28T19:43:36.917Z,32.97
2023-02-28T19:46:03.867Z,30.33
2023-02-28T19:48:32.319Z,30.47
2023-02-28T19:51:01.294Z,29.00
2023-02-28T19:53:30.529Z,29.40
2023-02-28T19:55:57.224Z,30.35
2023-02-28T19:58:23.843Z,33.27
2023-02-28T20:00:50.555Z,30.23
2023-02-28T20:03:18.448Z,27.97
2023-02-28T20:05:46.776Z,30.73
2023-02-28T20:08:13.548Z,32.00
2023-02-28T20:10:40.116Z,27.77
2023-02-28T20:13:06.855Z,30.30
2023-02-28T20:15:33.547Z,27.80
2023-02-28T20:18:00.513Z,29.93
2023-02-28T20:20:27.604Z,27.03
2023-02-28T20:22:55.536Z,28.30
2023-02-28T20:25:22.161Z,29.27
2023-02-28T20:27:48.780Z,33.47
2023-02-28T20:30:15.504Z,27.63
2023-02-28T20:32:42.140Z,26.57
2023-02-28T20:35:11.586Z,26.77
2023-02-28T20:37:38.628Z,24.40
2023-02-28T20:40:08.140Z,26.00
2023-02-28T20:42:34.753Z,28.55
2023-02-28T20:45:01.478Z,26.03
2023-02-28T20:47:28.098Z,29.83
2023-02-28T20:49:54.791Z,26.17
2023-02-28T20:52:21.487Z,29.07
2023-02-28T20:54:48.063Z,27.10
2023-02-28T20:57:15.967Z,28.77
2023-02-28T20:59:42.716Z,29.40
2023-02-28T21:02:11.432Z,25.00
2023-02-28T21:04:38.067Z,23.17
2023-02-28T21:07:04.733Z,24.53
2023-02-28T21:09:31.385Z,26.13
2023-02-28T21:11:57.995Z,26.13
2023-02-28T21:14:27.325Z,26.13
2023-02-28T21:16:53.914Z,25.13
2023-02-28T21:19:20.834Z,25.17
2023-02-28T21:21:48.161Z,25.47
2023-02-28T21:24:16.533Z,25.00
2023-02-28T21:26:45.011Z,22.13
2023-02-28T21:29:12.721Z,24.77
2023-02-28T21:31:41.029Z,22.37
2023-02-28T21:34:09.441Z,22.17
2023-02-28T21:36:37.989Z,24.80
2023-02-28T21:39:07.903Z,33.30
2023-02-28T21:41:35.133Z,26.00
2023-02-28T21:44:01.850Z,23.10
2023-02-28T21:46:30.842Z,24.50
2023-02-28T21:48:59.231Z,24.25
2023-02-28T21:51:28.228Z,28.10
2023-02-28T21:53:54.913Z,25.48
2023-02-28T21:56:24.300Z,22.40
2023-02-28T21:59:00.299Z,23.08
2023-02-28T22:01:30.236Z,28.80
2023-02-28T22:06:27.287Z,25.83
2023-02-28T22:08:56.608Z,24.33
2023-02-28T22:11:24.174Z,21.02
2023-02-28T22:13:52.598Z,23.83
2023-02-28T22:16:20.877Z,24.90
2023-02-28T22:18:47.472Z,25.43
2023-02-28T22:21:15.677Z,24.47
2023-02-28T22:23:44.761Z,28.90
2023-02-28T22:26:12.926Z,23.60
2023-02-28T22:28:39.775Z,23.73
2023-02-28T22:31:13.912Z,22.67
2023-02-28T22:33:40.928Z,22.17
2023-02-28T22:36:09.273Z,23.07
2023-02-28T22:38:35.937Z,25.33
2023-02-28T22:41:05.057Z,24.53
2023-02-28T22:43:32.003Z,23.80
2023-02-28T22:46:01.906Z,25.10
2023-02-28T22:48:28.451Z,26.43
2023-02-28T22:51:01.421Z,24.50
2023-02-28T22:53:29.906Z,25.80
2023-02-28T22:55:56.736Z,25.17
2023-02-28T22:58:24.670Z,23.60
2023-02-28T23:00:54.767Z,25.90
2023-02-28T23:03:22.969Z,25.70
2023-02-28T23:05:49.662Z,26.37
2023-02-28T23:08:16.798Z,22.90
2023-02-28T23:10:44.034Z,25.43
2023-02-28T23:13:10.575Z,23.10
2023-02-28T23:15:39.600Z,27.40
2023-02-28T23:18:06.274Z,24.60
2023-02-28T23:20:32.971Z,24.20
2023-02-28T23:22:59.836Z,26.07
2023-02-28T23:25:26.595Z,22.07
2023-02-28T23:27:53.237Z,23.13
2023-02-28T23:30:20.069Z,27.40
2023-02-28T23:32:48.670Z,21.67
2023-02-28T23:35:15.567Z,24.63
2023-02-28T23:37:42.458Z,25.00
2023-02-28T23:40:11.509Z,25.13
2023-02-28T23:42:38.242Z,24.13
2023-02-28T23:45:06.391Z,23.93
2023-02-28T23:47:33.008Z,25.13
2023-02-28T23:50:00.986Z,26.07
2023-02-28T23:52:27.603Z,21.50
2023-02-28T23:54:54.177Z,23.83
2023-02-28T23:57:20.805Z,25.77
2023-02-28T23:59:47.610Z,26.37
